Time;durP1;ratioP1;P1;durP2;ratioP2;P2;SDS_P1;SDS_P2;PMS_P1;PMS_P2;Temp;Humidity;BMP_temperature;BMP_pressure;BME280_temperature;BME280_humidity;BME280_pressure;Samples;Min_cycle;Max_cycle;Signal;HPM_P1;HPM_P2
2022/07/24 00:01:36;;;;;;;5.97;5.47;;;;;;;29.18;56.45;100694.41;4953940;28;69821;-35
2022/07/24 00:04:07;;;;;;;5.20;4.80;;;;;;;29.25;56.90;100688.97;4959242;28;66490;-34
2022/07/24 00:06:38;;;;;;;10.57;7.38;;;;;;;29.28;62.13;100707.47;4957508;28;69303;-34
2022/07/24 00:09:09;;;;;;;10.13;9.23;;;;;;;29.38;65.22;100710.53;4957196;28;66244;-34
2022/07/24 00:11:43;;;;;;;11.18;10.18;;;;;;;29.41;67.38;100709.28;4956182;28;69647;-34
2022/07/24 00:14:17;;;;;;;11.60;10.25;;;;;;;29.42;67.71;100689.34;4959827;28;66351;-34
2022/07/24 00:16:48;;;;;;;12.70;11.18;;;;;;;29.47;69.01;100696.78;4958555;28;69954;-34
2022/07/24 00:19:19;;;;;;;12.70;11.32;;;;;;;29.56;69.48;100706.28;4958691;28;66144;-34
2022/07/24 00:21:50;;;;;;;15.97;10.40;;;;;;;29.34;69.03;100668.78;4958055;28;69183;-34
2022/07/24 00:24:21;;;;;;;12.80;11.48;;;;;;;29.42;70.75;100674.97;4957455;28;66122;-34
2022/07/24 00:26:52;;;;;;;15.90;12.23;;;;;;;29.67;70.78;100711.06;4958687;28;69134;-34
2022/07/24 00:29:22;;;;;;;16.25;11.60;;;;;;;29.64;70.28;100702.53;4956015;28;64861;-34
2022/07/24 00:31:53;;;;;;;19.25;11.68;;;;;;;29.64;70.49;100691.72;4958435;28;71067;-34
2022/07/24 00:34:24;;;;;;;14.80;11.02;;;;;;;29.76;70.12;100708.94;4955620;28;66090;-34
2022/07/24 00:36:55;;;;;;;13.52;10.90;;;;;;;29.77;71.24;100714.13;4954456;28;70040;-34
2022/07/24 00:39:26;;;;;;;13.70;10.10;;;;;;;29.77;70.93;100708.72;4954587;28;65653;-34
2022/07/24 00:41:57;;;;;;;14.35;10.27;;;;;;;29.81;71.52;100715.34;4959370;28;71366;-35
2022/07/24 00:44:28;;;;;;;12.27;11.07;;;;;;;29.84;71.46;100712.22;4958896;28;66018;-35
2022/07/24 00:46:58;;;;;;;10.82;9.85;;;;;;;29.76;71.81;100695.44;5019063;28;69221;-35
2022/07/24 00:49:29;;;;;;;12.45;9.57;;;;;;;29.88;71.68;100714.47;4957059;28;66785;-34
2022/07/24 00:52:01;;;;;;;10.20;9.10;;;;;;;29.91;71.96;100703.22;4958584;28;70532;-34
2022/07/24 00:54:32;;;;;;;9.73;8.83;;;;;;;29.91;71.39;100700.53;4958573;28;66693;-34
2022/07/24 00:57:03;;;;;;;13.65;8.60;;;;;;;29.97;72.41;100713.16;4959761;28;69384;-33
2022/07/24 00:59:34;;;;;;;13.52;12.30;;;;;;;29.97;72.34;100708.56;4956184;28;65360;-33
2022/07/24 01:02:05;;;;;;;21.00;16.25;;;;;;;29.96;71.71;100711.53;4956667;28;70110;-33
2022/07/24 01:04:38;;;;;;;17.42;15.55;;;;;;;30.05;71.98;100710.19;5023276;28;66395;-34
2022/07/24 01:07:17;;;;;;;15.93;14.13;;;;;;;30.00;71.68;100697.31;4955046;28;69186;-34
2022/07/24 01:09:48;;;;;;;12.43;11.27;;;;;;;30.07;71.26;100705.41;5018992;28;65985;-33
2022/07/24 01:12:20;;;;;;;14.13;10.80;;;;;;;30.00;71.63;100693.78;4956436;28;70054;-33
2022/07/24 01:14:51;;;;;;;11.68;9.32;;;;;;;30.15;70.81;100710.56;4958746;28;65583;-33
2022/07/24 01:17:22;;;;;;;11.40;8.38;;;;;;;30.18;71.56;100718.22;4957331;28;69345;-33
2022/07/24 01:19:53;;;;;;;8.67;7.83;;;;;;;30.21;70.35;100725.91;4958816;28;65598;-35
2022/07/24 01:22:25;;;;;;;7.20;6.57;;;;;;;30.28;71.04;100721.31;4958316;28;69764;-34
2022/07/24 01:24:57;;;;;;;7.90;6.85;;;;;;;30.31;70.58;100719.19;4955227;28;66362;-34
2022/07/24 01:27:28;;;;;;;9.10;5.90;;;;;;;30.33;70.41;100717.94;4954572;28;69747;-34
2022/07/24 01:29:59;;;;;;;6.32;5.03;;;;;;;30.41;70.15;100722.25;4956269;28;65666;-34
2022/07/24 01:32:30;;;;;;;9.73;5.20;;;;;;;30.33;69.61;100706.28;4957091;28;70094;-34
2022/07/24 01:35:01;;;;;;;5.20;4.70;;;;;;;30.43;69.95;100706.63;4958437;28;66533;-36
2022/07/24 01:37:32;;;;;;;5.38;4.85;;;;;;;30.42;69.78;100711.22;4956417;28;69289;-36
2022/07/24 01:40:04;;;;;;;5.53;4.80;;;;;;;30.49;69.73;100721.97;4953334;28;65863;-37
2022/07/24 01:42:35;;;;;;;5.55;5.00;;;;;;;30.41;69.51;100714.13;4955924;28;70068;-35
2022/07/24 01:45:06;;;;;;;5.68;5.18;;;;;;;30.48;69.19;100720.31;5023176;28;66619;-36
2022/07/24 01:47:37;;;;;;;;;;;;;;;30.23;70.93;100723.84;4955735;28;70038;-35
2022/07/24 01:50:08;;;;;;;7.45;5.25;;;;;;;30.49;70.11;100727.38;4959349;28;66314;-41
2022/07/24 01:52:39;;;;;;;5.13;4.72;;;;;;;30.53;69.48;100723.16;4956993;28;69014;-37
2022/07/24 01:55:11;;;;;;;6.77;5.17;;;;;;;30.49;69.77;100716.56;5025093;28;66132;-36
2022/07/24 01:57:42;;;;;;;5.07;4.28;;;;;;;30.54;69.65;100724.03;4957989;28;70114;-34
2022/07/24 02:00:14;;;;;;;4.90;4.60;;;;;;;30.56;69.41;100728.13;5025396;28;65711;-36
2022/07/24 02:02:46;;;;;;;5.40;4.82;;;;;;;30.58;69.47;100719.81;4954771;28;69336;-35
2022/07/24 02:05:17;;;;;;;;;;;;;;;30.28;70.27;100726.72;4985956;28;65284;-34
2022/07/24 02:07:58;;;;;;;5.80;5.30;;;;;;;30.56;69.71;100722.72;5010655;28;68978;-36
2022/07/24 02:10:29;;;;;;;4.88;4.38;;;;;;;30.60;69.37;100713.13;4955815;28;66756;-35
2022/07/24 02:13:01;;;;;;;4.63;4.32;;;;;;;30.59;69.64;100716.88;4951569;28;70080;-35
2022/07/24 02:15:35;;;;;;;4.65;4.28;;;;;;;30.55;68.98;100702.13;5019400;28;65645;-35
2022/07/24 02:18:06;;;;;;;4.35;4.00;;;;;;;30.66;68.51;100714.94;4957145;28;70323;-35
2022/07/24 02:20:38;;;;;;;4.63;4.28;;;;;;;30.65;68.85;100713.28;5022652;28;66010;-36
2022/07/24 02:23:09;;;;;;;4.85;4.55;;;;;;;30.68;68.64;100710.13;4955911;28;69793;-35
2022/07/24 02:25:40;;;;;;;5.57;5.07;;;;;;;30.65;68.50;100705.16;5018982;28;65189;-35
2022/07/24 02:28:11;;;;;;;4.70;4.30;;;;;;;30.72;68.44;100715.91;4958831;28;70596;-37
2022/07/24 02:30:44;;;;;;;8.48;4.13;;;;;;;30.72;68.38;100707.78;4957584;28;66187;-34
2022/07/24 02:33:15;;;;;;;7.53;4.32;;;;;;;30.72;68.95;100700.50;4957517;28;69654;-34
2022/07/24 02:35:46;;;;;;;5.20;4.30;;;;;;;30.66;68.37;100687.84;5024046;28;65054;-35
2022/07/24 02:38:17;;;;;;;5.32;4.82;;;;;;;30.78;68.32;100704.19;4959298;28;70378;-37
2022/07/24 02:40:48;;;;;;;5.50;4.70;;;;;;;30.78;68.26;100703.38;4958579;28;68013;-37
2022/07/24 02:43:19;;;;;;;5.15;4.68;;;;;;;30.76;68.41;100697.34;4956995;28;69997;-35
2022/07/24 02:45:50;;;;;;;4.80;4.43;;;;;;;30.86;67.97;100711.22;4950656;28;66469;-36
2022/07/24 02:48:21;;;;;;;5.13;4.63;;;;;;;30.85;68.27;100710.41;4954034;28;71393;-35
2022/07/24 02:50:52;;;;;;;7.50;4.00;;;;;;;30.81;68.25;100700.22;5021945;28;65834;-36
2022/07/24 02:53:23;;;;;;;5.05;4.55;;;;;;;30.89;68.26;100705.34;4958319;28;71076;-34
2022/07/24 02:55:54;;;;;;;4.63;4.25;;;;;;;30.90;68.50;100701.63;4960306;28;66462;-35
2022/07/24 02:58:25;;;;;;;17.15;4.55;;;;;;;30.97;68.76;100707.78;4958059;28;69491;-35
2022/07/24 03:00:56;;;;;;;5.40;4.95;;;;;;;31.00;68.47;100707.31;4960594;28;66380;-36
2022/07/24 03:03:27;;;;;;;4.85;4.50;;;;;;;31.03;68.71;100701.44;4969345;28;70266;-36
2022/07/24 03:05:58;;;;;;;5.00;4.55;;;;;;;31.05;68.80;100699.34;4972395;28;66105;-35
2022/07/24 03:08:29;;;;;;;4.43;4.15;;;;;;;31.04;68.94;100686.88;4977452;28;70031;-36
2022/07/24 03:11:00;;;;;;;9.50;4.67;;;;;;;31.13;69.08;100690.91;5023857;28;65246;-36
2022/07/24 03:13:31;;;;;;;5.43;4.35;;;;;;;31.11;69.06;100675.94;4958881;28;70616;-37
2022/07/24 03:16:03;;;;;;;9.05;4.78;;;;;;;31.20;69.25;100684.59;4959708;28;66341;-35
2022/07/24 03:18:34;;;;;;;5.10;4.70;;;;;;;31.26;69.88;100678.25;4959560;28;69082;-36
2022/07/24 03:21:05;;;;;;;5.32;4.72;;;;;;;31.26;69.85;100675.53;4981603;28;65466;-36
2022/07/24 03:23:54;;;;;;;8.10;4.43;;;;;;;31.36;70.01;100689.41;4953954;28;69127;-35
2022/07/24 03:26:25;;;;;;;14.70;4.78;;;;;;;31.38;69.84;100687.31;4958221;28;65768;-34
2022/07/24 03:28:56;;;;;;;8.10;4.88;;;;;;;31.43;69.44;100689.34;5020457;28;68825;-36
2022/07/24 03:31:27;;;;;;;5.83;4.60;;;;;;;31.43;69.73;100676.63;4958821;28;65985;-35
2022/07/24 03:33:58;;;;;;;8.57;4.80;;;;;;;31.51;69.22;100676.31;5039135;28;71839;-34
2022/07/24 03:36:30;;;;;;;8.07;4.57;;;;;;;31.55;68.90;100682.91;5031242;28;65873;-34
2022/07/24 03:39:01;;;;;;;9.82;5.10;;;;;;;31.59;66.91;100661.56;4953715;28;71194;-33
2022/07/24 03:41:33;;;;;;;8.75;4.43;;;;;;;31.77;65.71;100671.56;5020879;28;65859;-30
2022/07/24 03:44:04;;;;;;;6.40;4.50;;;;;;;31.84;64.30;100677.69;4955446;28;71512;-30
2022/07/24 03:46:35;;;;;;;7.47;4.22;;;;;;;31.91;63.71;100674.88;4955922;28;67522;-30
2022/07/24 03:49:06;;;;;;;8.10;4.50;;;;;;;31.96;64.71;100670.44;4957936;28;69212;-31
2022/07/24 03:51:38;;;;;;;8.80;8.02;;;;;;;31.98;64.21;100671.06;4957428;28;65081;-31
2022/07/24 03:54:10;;;;;;;13.25;11.75;;;;;;;32.04;63.23;100670.13;4951641;28;69769;-31
2022/07/24 03:56:43;;;;;;;11.15;8.32;;;;;;;32.11;63.56;100664.56;5003827;28;66840;-30
2022/07/24 03:59:16;;;;;;;11.75;8.20;;;;;;;32.13;62.97;100661.63;4986195;28;70129;-30
2022/07/24 04:01:47;;;;;;;8.35;7.57;;;;;;;32.15;63.25;100659.50;4952784;28;66770;-30
2022/07/24 04:04:18;;;;;;;7.90;7.13;;;;;;;32.16;62.61;100662.00;4949938;28;70572;-33
2022/07/24 04:06:51;;;;;;;7.20;4.95;;;;;;;32.21;61.98;100659.41;5012173;28;66301;-34
2022/07/24 04:09:25;;;;;;;8.57;4.28;;;;;;;32.31;61.82;100658.81;4989932;28;68951;-31
2022/07/24 04:12:03;;;;;;;6.47;5.30;;;;;;;32.34;61.97;100642.03;5036967;28;65232;-32
2022/07/24 04:14:37;;;;;;;5.10;4.70;;;;;;;32.38;61.53;100642.41;4978859;28;69156;-29
2022/07/24 04:17:08;;;;;;;5.90;4.60;;;;;;;32.37;61.54;100647.00;5007898;28;66170;-30
2022/07/24 04:19:40;;;;;;;7.20;4.80;;;;;;;32.36;61.96;100629.06;5023443;28;69601;-32
2022/07/24 04:22:11;;;;;;;6.73;4.03;;;;;;;32.43;61.91;100640.66;5017850;28;67449;-30
2022/07/24 04:24:42;;;;;;;4.63;3.85;;;;;;;32.45;62.16;100643.94;5007247;28;69026;-31
2022/07/24 04:27:13;;;;;;;15.33;4.43;;;;;;;32.47;62.27;100636.41;5016558;28;66394;-30
2022/07/24 04:29:44;;;;;;;14.63;4.68;;;;;;;32.55;61.29;100637.94;4955851;28;69604;-29
2022/07/24 04:32:18;;;;;;;8.30;5.43;;;;;;;32.56;62.19;100636.06;4962826;28;66771;-30
2022/07/24 04:34:48;;;;;;;5.20;4.80;;;;;;;32.65;61.78;100642.75;5016186;28;69868;-30
2022/07/24 04:37:19;;;;;;;11.20;4.13;;;;;;;32.63;62.41;100644.91;4958497;28;65798;-30
2022/07/24 04:39:51;;;;;;;6.00;3.85;;;;;;;32.61;62.36;100644.31;4959601;28;69664;-30
2022/07/24 04:42:22;;;;;;;6.82;3.88;;;;;;;32.65;62.14;100637.31;4957764;28;66664;-31
2022/07/24 04:44:53;;;;;;;6.82;3.33;;;;;;;32.70;62.06;100640.97;5005346;28;69937;-31
2022/07/24 04:47:24;;;;;;;6.50;3.33;;;;;;;32.75;62.00;100642.16;4965389;28;67237;-31
2022/07/24 04:49:55;;;;;;;3.85;3.28;;;;;;;32.78;61.91;100638.97;4956545;28;70670;-31
2022/07/24 04:52:27;;;;;;;4.30;3.08;;;;;;;32.83;62.04;100634.47;4958047;28;65807;-31
2022/07/24 04:55:00;;;;;;;3.70;3.40;;;;;;;32.85;61.99;100631.53;5018485;28;70195;-31
2022/07/24 04:57:31;;;;;;;4.40;3.13;;;;;;;32.87;61.84;100629.38;4956953;28;66710;-30
2022/07/24 05:00:06;;;;;;;6.00;3.40;;;;;;;32.68;61.64;100593.41;4955326;28;71795;-31
2022/07/24 05:02:37;;;;;;;3.60;3.05;;;;;;;32.92;61.81;100630.31;5003109;28;66336;-30
2022/07/24 05:05:08;;;;;;;3.80;3.40;;;;;;;32.83;61.97;100611.91;4968773;28;71534;-31
2022/07/24 05:07:40;;;;;;;8.05;3.58;;;;;;;32.91;61.81;100614.25;4958443;28;65539;-31
2022/07/24 05:10:11;;;;;;;3.42;3.13;;;;;;;32.97;61.56;100615.19;4957570;28;70437;-31
2022/07/24 05:12:41;;;;;;;3.00;2.80;;;;;;;33.00;61.41;100622.91;4953976;28;67251;-31
2022/07/24 05:15:12;;;;;;;3.42;2.97;;;;;;;32.98;61.60;100614.13;5019301;28;68097;-30
2022/07/24 05:17:43;;;;;;;5.90;3.50;;;;;;;32.98;61.79;100604.06;4956516;28;67224;-32
2022/07/24 05:20:15;;;;;;;4.85;2.90;;;;;;;33.05;61.68;100612.13;4954981;28;69825;-31
2022/07/24 05:22:46;;;;;;;3.10;2.75;;;;;;;32.97;61.94;100607.88;4952424;28;65827;-30
2022/07/24 05:25:17;;;;;;;8.43;3.53;;;;;;;32.84;61.03;100608.94;5017266;28;69819;-30
2022/07/24 05:27:48;;;;;;;5.33;3.37;;;;;;;32.62;60.35;100606.03;4956143;28;67049;-31
2022/07/24 05:30:19;;;;;;;3.47;3.00;;;;;;;32.42;59.52;100605.56;5002687;28;69609;-31
2022/07/24 05:32:50;;;;;;;7.90;3.28;;;;;;;32.28;59.11;100599.56;4956731;28;65960;-30
2022/07/24 05:35:21;;;;;;;13.02;3.13;;;;;;;32.12;58.70;100589.41;5012608;28;70010;-32
2022/07/24 05:37:56;;;;;;;4.10;2.70;;;;;;;32.02;58.03;100585.41;5017750;28;65934;-31
2022/07/24 05:40:27;;;;;;;6.47;3.38;;;;;;;31.85;57.20;100572.75;4956757;28;69220;-31
2022/07/24 05:42:58;;;;;;;4.57;3.13;;;;;;;31.82;57.42;100577.59;4956303;28;65850;-30
2022/07/24 05:45:29;;;;;;;5.93;3.10;;;;;;;31.70;57.34;100575.91;4953175;28;70437;-31
2022/07/24 05:48:00;;;;;;;6.70;2.90;;;;;;;31.74;56.52;100571.69;4953900;28;65650;-30
2022/07/24 05:50:30;;;;;;;16.67;2.67;;;;;;;31.68;55.74;100570.72;4952392;28;70351;-31
2022/07/24 05:53:01;;;;;;;4.72;2.90;;;;;;;31.65;55.04;100573.06;4947986;28;66525;-31
2022/07/24 05:55:32;;;;;;;3.57;2.47;;;;;;;31.58;54.72;100565.84;4952769;28;70603;-33
2022/07/24 05:58:03;;;;;;;4.40;2.55;;;;;;;31.55;53.76;100547.34;5008820;28;65308;-32
2022/07/24 06:00:35;;;;;;;10.57;2.28;;;;;;;31.32;54.13;100522.88;4946911;28;68873;-31
2022/07/24 06:03:06;;;;;;;6.68;2.70;;;;;;;31.51;53.14;100548.88;4953709;28;66112;-32
2022/07/24 06:05:37;;;;;;;7.97;2.47;;;;;;;31.42;52.40;100533.19;4947579;28;69557;-32
2022/07/24 06:08:08;;;;;;;4.57;2.75;;;;;;;31.44;52.35;100540.03;4998039;28;65106;-31
2022/07/24 06:10:39;;;;;;;2.27;2.07;;;;;;;31.34;52.09;100529.72;4957768;28;70335;-32
2022/07/24 06:13:11;;;;;;;6.18;2.15;;;;;;;31.36;51.37;100521.38;4957352;28;66599;-29
2022/07/24 06:15:43;;;;;;;5.00;2.28;;;;;;;31.40;51.21;100511.75;4958759;28;69430;-30
2022/07/24 06:18:15;;;;;;;2.63;1.95;;;;;;;31.33;50.83;100510.97;4959419;28;65958;-30
2022/07/24 06:20:46;;;;;;;3.88;1.95;;;;;;;31.38;50.51;100508.44;4957472;28;70530;-30
2022/07/24 06:23:17;;;;;;;3.95;2.17;;;;;;;31.32;50.30;100514.75;4955377;28;66619;-31
2022/07/24 06:25:50;;;;;;;2.53;1.95;;;;;;;31.29;49.60;100498.97;4958752;28;69515;-31
2022/07/24 06:28:21;;;;;;;1.92;1.73;;;;;;;31.38;49.36;100505.72;5039412;28;65925;-30
2022/07/24 06:30:52;;;;;;;3.30;2.30;;;;;;;31.36;49.14;100494.28;4954887;28;69684;-31
2022/07/24 06:33:23;;;;;;;4.25;1.92;;;;;;;31.39;49.37;100497.34;5023594;28;65050;-30
2022/07/24 06:35:54;;;;;;;6.88;2.10;;;;;;;31.41;48.82;100505.25;4959355;28;70668;-30
2022/07/24 06:38:25;;;;;;;2.50;1.80;;;;;;;31.35;48.43;100492.59;4956356;28;65455;-31
2022/07/24 06:40:56;;;;;;;2.22;1.95;;;;;;;31.46;48.87;100496.44;4945770;28;70012;-31
2022/07/24 06:43:27;;;;;;;8.70;2.40;;;;;;;31.42;48.55;100498.75;4950225;28;67828;-31
2022/07/24 06:45:57;;;;;;;4.03;1.83;;;;;;;31.51;48.08;100491.97;4958455;28;70497;-29
2022/07/24 06:48:30;;;;;;;2.92;1.88;;;;;;;31.55;48.12;100497.72;4955833;28;66354;-30
2022/07/24 06:51:01;;;;;;;2.20;2.00;;;;;;;31.54;47.94;100491.50;4955525;28;70349;-30
2022/07/24 06:53:32;;;;;;;4.28;1.52;;;;;;;31.55;47.68;100493.13;5021263;28;67854;-31
2022/07/24 06:56:03;;;;;;;2.30;2.00;;;;;;;31.60;47.53;100489.72;4956552;28;69916;-30
2022/07/24 06:58:34;;;;;;;2.13;1.77;;;;;;;31.63;47.46;100472.16;4957392;28;66230;-31
2022/07/24 07:01:05;;;;;;;3.03;1.63;;;;;;;31.65;46.80;100470.03;4956301;28;71461;-30
2022/07/24 07:03:36;;;;;;;2.78;2.08;;;;;;;31.69;46.89;100476.63;4953470;28;65791;-30
2022/07/24 07:06:07;;;;;;;3.60;2.00;;;;;;;31.65;46.59;100461.88;4957795;28;70143;-30
2022/07/24 07:08:41;;;;;;;2.85;1.77;;;;;;;31.72;46.40;100470.75;4956655;28;66296;-32
2022/07/24 07:11:18;;;;;;;4.43;1.88;;;;;;;31.74;46.08;100474.06;4957397;28;69700;-29
2022/07/24 07:13:49;;;;;;;2.28;2.08;;;;;;;31.75;46.33;100462.94;5017807;28;65613;-29
2022/07/24 07:16:20;;;;;;;1.70;1.58;;;;;;;31.78;46.21;100453.53;4947823;28;70204;-30
2022/07/24 07:18:51;;;;;;;4.83;2.13;;;;;;;31.76;46.61;100445.63;4953895;28;66035;-29
2022/07/24 07:21:22;;;;;;;7.22;2.47;;;;;;;31.80;46.55;100435.13;4958155;28;69493;-28
2022/07/24 07:23:53;;;;;;;6.05;2.03;;;;;;;31.81;46.47;100442.19;4956899;28;65971;-30
2022/07/24 07:26:24;;;;;;;3.92;2.38;;;;;;;31.86;47.71;100436.88;4945660;28;70202;-28
2022/07/24 07:28:54;;;;;;;3.30;2.38;;;;;;;31.86;47.29;100428.75;4947463;28;66183;-30
2022/07/24 07:31:26;;;;;;;8.85;2.30;;;;;;;31.85;47.01;100418.97;4946873;28;69952;-29
2022/07/24 07:33:57;;;;;;;3.28;2.30;;;;;;;31.81;46.66;100415.06;4948851;28;65528;-28
2022/07/24 07:36:28;;;;;;;3.03;2.13;;;;;;;31.75;46.24;100400.56;4949785;28;69752;-28
2022/07/24 07:38:59;;;;;;;2.38;1.73;;;;;;;31.83;45.64;100405.63;4946382;28;66554;-29
2022/07/24 07:41:30;;;;;;;3.23;1.63;;;;;;;31.82;45.50;100395.03;4948868;28;69372;-30
2022/07/24 07:44:01;;;;;;;2.10;1.88;;;;;;;31.83;45.42;100402.94;4949577;28;65301;-28
2022/07/24 07:46:32;;;;;;;1.90;1.80;;;;;;;31.53;45.26;100354.28;4949589;28;71244;-30
2022/07/24 07:49:04;;;;;;;6.20;1.80;;;;;;;31.79;45.07;100390.91;4943770;28;66463;-30
2022/07/24 07:51:35;;;;;;;2.63;2.20;;;;;;;31.79;44.54;100390.91;4943063;28;70559;-30
2022/07/24 07:54:08;;;;;;;2.58;1.80;;;;;;;31.81;44.84;100387.97;4955004;28;66606;-29
2022/07/24 07:56:39;;;;;;;1.98;1.88;;;;;;;31.72;44.46;100370.41;4947838;28;69917;-29
2022/07/24 07:59:10;;;;;;;1.92;1.77;;;;;;;31.68;44.68;100361.09;4952230;28;66524;-29
2022/07/24 08:01:41;;;;;;;1.98;1.88;;;;;;;31.75;44.45;100372.66;4957348;28;70070;-30
2022/07/24 08:04:12;;;;;;;1.98;1.88;;;;;;;31.76;44.68;100358.00;4952443;28;66558;-29
2022/07/24 08:06:43;;;;;;;3.50;2.27;;;;;;;31.74;44.83;100362.88;5000478;28;70169;-29
2022/07/24 08:09:15;;;;;;;2.35;1.65;;;;;;;31.75;44.41;100356.38;4955058;28;65599;-28
2022/07/24 08:11:49;;;;;;;2.88;1.67;;;;;;;31.75;44.68;100361.78;4953291;28;44080;-30
2022/07/24 08:14:20;;;;;;;4.70;1.83;;;;;;;31.75;45.02;100353.66;4948722;28;66040;-30
2022/07/24 08:16:50;;;;;;;1.42;1.33;;;;;;;31.73;45.18;100344.94;4951319;28;69659;-29
2022/07/24 08:19:21;;;;;;;2.28;1.70;;;;;;;31.78;45.15;100356.72;4955743;28;65539;-29
2022/07/24 08:21:52;;;;;;;6.78;2.67;;;;;;;31.77;46.15;100343.41;4957498;28;69995;-31
2022/07/24 08:24:23;;;;;;;2.08;1.73;;;;;;;31.81;48.91;100349.97;4957247;28;66675;-30
2022/07/24 08:26:53;;;;;;;2.78;2.17;;;;;;;31.88;54.01;100331.69;4956636;28;69400;-30
2022/07/24 08:29:25;;;;;;;3.13;2.80;;;;;;;32.12;56.47;100339.78;4959215;28;66339;-30
2022/07/24 08:31:57;;;;;;;14.05;3.03;;;;;;;32.28;58.76;100333.59;4956478;28;69307;-31
2022/07/24 08:34:28;;;;;;;6.27;3.87;;;;;;;32.42;60.38;100334.94;5001434;28;65709;-30
2022/07/24 08:36:59;;;;;;;11.80;4.22;;;;;;;32.52;60.84;100328.91;5026100;28;69947;-30
2022/07/24 08:39:30;;;;;;;7.25;3.47;;;;;;;32.66;61.02;100329.41;4957279;28;66347;-30
2022/07/24 08:42:01;;;;;;;10.65;3.75;;;;;;;32.73;60.93;100335.50;4957824;28;69662;-31
2022/07/24 08:44:33;;;;;;;4.03;3.40;;;;;;;32.78;61.12;100342.91;4956214;28;66793;-30
2022/07/24 08:47:03;;;;;;;;;;;;;;;32.57;62.09;100344.44;4958658;28;70308;-30
2022/07/24 08:49:36;;;;;;;3.17;2.88;;;;;;;32.24;61.66;100251.84;4956463;28;65877;-30
2022/07/24 08:52:08;;;;;;;13.88;2.90;;;;;;;32.90;61.94;100354.50;4950712;28;69867;-31
2022/07/24 08:54:39;;;;;;;4.05;2.72;;;;;;;32.93;61.30;100346.72;5019576;28;65221;-31
2022/07/24 08:57:10;;;;;;;4.82;3.25;;;;;;;32.91;62.14;100340.69;5024472;28;69073;-31
2022/07/24 08:59:41;;;;;;;3.88;3.58;;;;;;;32.98;62.00;100348.66;4953400;28;65384;-30
2022/07/24 09:02:12;;;;;;;4.35;2.97;;;;;;;33.01;62.71;100341.94;4956478;28;69909;-31
2022/07/24 09:04:46;;;;;;;4.10;3.07;;;;;;;32.75;62.69;100303.47;4954527;28;66335;-30
2022/07/24 09:07:22;;;;;;;3.85;3.30;;;;;;;32.78;62.59;100294.03;4956842;28;69697;-31
2022/07/24 09:10:09;;;;;;;4.03;2.75;;;;;;;33.06;63.40;100342.03;4953196;28;66246;-30
2022/07/24 09:12:45;;;;;;;3.35;3.05;;;;;;;32.81;63.47;100305.19;4949405;28;70598;-30
2022/07/24 09:15:23;;;;;;;3.00;2.80;;;;;;;33.14;63.68;100347.06;4952443;28;65473;-31
2022/07/24 09:17:58;;;;;;;3.53;3.25;;;;;;;32.84;63.60;100293.84;5023545;28;69729;-33
2022/07/24 09:20:30;;;;;;;8.25;3.45;;;;;;;33.17;63.86;100346.56;4954675;28;66073;-35
2022/07/24 09:23:01;;;;;;;3.08;2.88;;;;;;;33.16;64.02;100344.91;5023231;28;69055;-35
2022/07/24 09:25:36;;;;;;;3.22;3.03;;;;;;;33.17;64.44;100345.72;5019719;28;66775;-33
2022/07/24 09:28:07;;;;;;;5.13;3.30;;;;;;;33.18;64.36;100344.66;4958440;28;70412;-33
2022/07/24 09:30:45;;;;;;;4.00;3.28;;;;;;;33.21;64.75;100342.28;4952847;28;65514;-33
2022/07/24 09:33:21;;;;;;;3.65;3.33;;;;;;;32.83;64.75;100291.38;5023148;28;68941;-34
2022/07/24 09:35:53;;;;;;;3.83;3.38;;;;;;;33.00;64.80;100318.56;4956355;28;66875;-33
2022/07/24 09:38:26;;;;;;;3.47;3.28;;;;;;;33.20;64.97;100356.09;5022358;28;70096;-33
2022/07/24 09:40:59;;;;;;;3.70;3.35;;;;;;;33.23;65.17;100361.84;5022390;28;66256;-33
2022/07/24 09:43:31;;;;;;;5.97;3.30;;;;;;;33.21;65.16;100357.75;4959270;28;70297;-34
2022/07/24 09:46:11;;;;;;;3.10;2.70;;;;;;;33.23;65.25;100361.84;4948442;28;66400;-34
2022/07/24 09:49:18;;;;;;;2.88;2.67;;;;;;;33.11;65.73;100363.84;5018706;28;70042;-33
2022/07/24 09:52:18;;;;;;;3.15;2.92;;;;;;;33.13;65.53;100361.72;4956600;28;66510;-34
2022/07/24 09:54:51;;;;;;;3.50;3.20;;;;;;;33.42;64.29;100378.72;5027099;28;71132;-33
2022/07/24 09:57:25;;;;;;;3.03;2.80;;;;;;;33.19;63.74;100321.84;4956776;28;66112;-34
2022/07/24 09:59:58;;;;;;;2.88;2.67;;;;;;;33.64;63.58;100378.78;4958185;28;70527;-34
2022/07/24 10:02:33;;;;;;;3.08;2.83;;;;;;;33.64;63.16;100378.78;4957892;28;65271;-33
2022/07/24 10:05:09;;;;;;;3.47;2.40;;;;;;;33.76;63.23;100381.41;4958468;28;70353;-33
2022/07/24 10:07:49;;;;;;;4.30;2.70;;;;;;;33.46;63.00;100328.22;4954230;28;65316;-34
2022/07/24 10:10:20;;;;;;;3.50;3.20;;;;;;;33.86;62.57;100383.44;4958772;28;69799;-34
2022/07/24 10:12:51;;;;;;;3.13;2.67;;;;;;;33.83;62.27;100381.22;4957415;28;65090;-33
2022/07/24 10:15:27;;;;;;;3.17;2.67;;;;;;;33.90;62.46;100387.28;4958557;28;72227;-33
2022/07/24 10:18:19;;;;;;;5.03;3.33;;;;;;;33.80;62.81;100383.38;4954841;28;66399;-33
2022/07/24 10:20:58;;;;;;;4.38;3.03;;;;;;;33.93;62.43;100394.94;4958106;28;70860;-33
2022/07/24 10:23:43;;;;;;;3.85;3.13;;;;;;;33.83;62.47;100387.47;4954158;28;65474;-34
2022/07/24 10:26:28;;;;;;;3.47;2.83;;;;;;;33.41;62.37;100319.19;4955440;28;70681;-35
2022/07/24 10:29:15;;;;;;;3.67;3.38;;;;;;;33.56;62.29;100338.44;4954259;28;65313;-33
2022/07/24 10:31:49;;;;;;;8.93;3.00;;;;;;;33.72;62.11;100363.94;4958162;28;70386;-34
2022/07/24 10:34:46;;;;;;;3.10;2.80;;;;;;;33.92;62.15;100409.63;4958390;28;66846;-34
2022/07/24 10:37:37;;;;;;;4.03;2.70;;;;;;;33.91;62.20;100410.72;4957154;28;69975;-36
2022/07/24 10:40:08;;;;;;;6.10;3.40;;;;;;;34.00;62.12;100430.97;4955468;28;66458;-34
2022/07/24 10:43:09;;;;;;;3.90;3.20;;;;;;;33.91;62.34;100437.94;4958076;28;70372;-35
2022/07/24 10:45:49;;;;;;;6.40;3.28;;;;;;;33.99;61.99;100451.06;4956779;28;66383;-33
2022/07/24 10:48:24;;;;;;;4.50;3.15;;;;;;;34.00;61.89;100463.63;4956382;28;70643;-34
2022/07/24 10:50:59;;;;;;;5.57;3.33;;;;;;;34.00;61.88;100466.34;5023757;28;63846;-33
2022/07/24 10:53:39;;;;;;;3.33;3.05;;;;;;;33.98;62.03;100466.56;4954649;28;70206;-34
2022/07/24 10:56:23;;;;;;;3.50;3.20;;;;;;;33.98;61.86;100463.03;4955636;28;64888;-34
2022/07/24 10:59:06;;;;;;;3.83;3.05;;;;;;;33.74;61.84;100417.03;5019792;28;70106;-35
2022/07/24 11:01:53;;;;;;;3.78;2.83;;;;;;;33.63;62.19;100407.06;4957547;28;65813;-34
2022/07/24 11:04:29;;;;;;;4.60;3.13;;;;;;;33.67;61.89;100408.22;5000130;28;69402;-42
2022/07/24 11:07:13;;;;;;;3.53;3.22;;;;;;;33.94;62.10;100475.50;4956681;28;65593;-35
2022/07/24 11:10:07;;;;;;;3.70;2.85;;;;;;;33.58;62.04;100417.88;4954657;28;68688;-34
2022/07/24 11:12:47;;;;;;;3.03;2.80;;;;;;;33.93;61.89;100473.84;4953675;28;66057;-34
2022/07/24 11:18:15;;;;;;;5.28;3.10;;;;;;;33.85;62.06;100488.72;4957723;28;65649;-36
2022/07/24 11:20:46;;;;;;;3.83;3.35;;;;;;;33.94;61.96;100505.44;4956855;28;70743;-33
2022/07/24 11:23:21;;;;;;;3.27;2.97;;;;;;;33.56;61.76;100447.22;4967317;28;65488;-35
2022/07/24 11:26:30;;;;;;;5.82;3.63;;;;;;;33.83;62.40;100507.19;4955908;28;69420;-41
2022/07/24 11:29:22;;;;;;;4.53;4.13;;;;;;;33.73;63.24;100507.84;4958048;28;65887;-35
2022/07/24 11:32:11;;;;;;;4.78;4.38;;;;;;;33.69;64.24;100516.78;5037128;28;69146;-36
2022/07/24 11:34:50;;;;;;;4.45;4.15;;;;;;;33.18;63.24;100473.22;4956135;28;65793;-34
2022/07/24 11:37:24;;;;;;;4.78;4.25;;;;;;;33.30;62.26;100531.06;4957022;28;69709;-34
2022/07/24 11:40:00;;;;;;;5.63;4.20;;;;;;;33.11;61.92;100530.44;4969367;28;66607;-34
2022/07/24 11:42:31;;;;;;;4.70;3.92;;;;;;;32.97;62.20;100537.22;4959223;28;69419;-34
2022/07/24 11:45:03;;;;;;;4.30;3.67;;;;;;;32.83;61.52;100539.41;4956740;28;66113;-34
2022/07/24 11:47:34;;;;;;;3.67;3.38;;;;;;;32.70;60.75;100542.38;5025217;28;69074;-34
2022/07/24 11:50:07;;;;;;;3.45;3.20;;;;;;;32.62;59.79;100548.19;4959640;28;65910;-34
2022/07/24 11:52:41;;;;;;;7.38;3.45;;;;;;;32.53;59.09;100549.66;5010706;28;69858;-34
2022/07/24 11:55:14;;;;;;;6.85;3.50;;;;;;;32.44;58.82;100549.97;4952541;28;65787;-33